Warroad, MN

3:20 AM CST on February 18, 2018 (GMT -0600)
Warroad International-Carlson

Weather History for KRRT - September, 2013

Change the Weather History Date:

Saturday, September 7, 2013

  Actual Average Record
Temperature  
Mean Temperature 66 °F -  
Max Temperature 73 °F 70 °F 93 °F (1976)
Min Temperature 59 °F 48 °F 30 °F (1956)
Cooling Degree Days 1    
Growing Degree Days 16 (Base 50)    
Moisture  
Dew Point 61 °F    
Average Humidity 75    
Maximum Humidity 88    
Minimum Humidity 53    
Precipitation  
Precipitation 0.00 in - - ()
Sea Level Pressure  
Sea Level Pressure 30.07 in    
Wind  
Wind Speed 8 mph (NNE)    
Max Wind Speed 17 mph    
Max Gust Speed 22 mph    
Visibility 10 miles    
Events      
Averages and records for this station are not official NWS values.
T = Trace of Precipitation, MM = Missing Value Source: NWS Daily Summary

Daily Weather History Graph

Daily Weather History Graph

Search for Another Location

Airport or City:

Trip Planner

Search our weather history database for the weather conditions in past years. The results will help you decide how hot, cold, wet, or windy it might be!

Date:

Astronomy

Sep. 07, 2013 Rise Set
Actual Time 6:46 AM CDT 7:50 PM CDT
Civil Twilight 6:14 AM CDT 8:22 PM CDT
Nautical Twilight 5:35 AM CDT 9:01 PM CDT
Astronomical Twilight 4:54 AM CDT 9:42 PM CDT
Moon 9:18 AM CDT (9/7) 8:31 PM CDT (9/7)
Length of Visible Light 14h 08m
Length of Day
13h 03m
Waxing Crescent, 5% of the Moon is Illuminated
Sep 7
Waxing Crescent
Sep 12
First Quarter
Sep 19
Full
Sep 26
Last Quarter
Oct 4
New

Hourly Weather History & Observations

Time (CDT) Temp. Dew Point Humidity Pressure Visibility Wind Dir Wind Speed Gust Speed Precip Events Conditions
12:14 AM 73.4 °F 69.8 °F 88% 29.91 in 10.0 mi WNW 5.8 mph - N/A   Clear
12:34 AM 71.6 °F 68.0 °F 88% 29.91 in 10.0 mi NW 5.8 mph - N/A   Clear
12:54 AM 71.6 °F 66.2 °F 83% 29.91 in 10.0 mi NW 4.6 mph - N/A   Clear
1:14 AM 71.6 °F 66.2 °F 83% 29.92 in 10.0 mi NW 4.6 mph - N/A   Clear
1:34 AM 69.8 °F 66.2 °F 88% 29.93 in 10.0 mi NW 4.6 mph - N/A   Clear
1:54 AM 69.8 °F 64.4 °F 83% 29.93 in 10.0 mi Calm Calm - N/A   Clear
2:14 AM 69.8 °F 64.4 °F 83% 29.93 in 10.0 mi NW 5.8 mph - N/A   Clear
2:34 AM 69.8 °F 64.4 °F 83% 29.93 in 10.0 mi NW 6.9 mph - N/A   Scattered Clouds
2:54 AM 69.8 °F 64.4 °F 83% 29.94 in 10.0 mi NNW 8.1 mph - N/A   Clear
3:14 AM 69.8 °F 64.4 °F 83% 29.94 in 10.0 mi North 8.1 mph - N/A   Scattered Clouds
3:34 AM 69.8 °F 64.4 °F 83% 29.94 in 10.0 mi North 6.9 mph - N/A   Scattered Clouds
3:54 AM 68.0 °F 64.4 °F 88% 29.94 in 10.0 mi North 9.2 mph - N/A   Scattered Clouds
4:14 AM 68.0 °F 64.4 °F 88% 29.95 in 10.0 mi North 8.1 mph - N/A   Scattered Clouds
4:34 AM 68.0 °F 64.4 °F 88% 29.96 in 10.0 mi NNE 6.9 mph - N/A   Clear
4:53 AM 68.0 °F 64.4 °F 88% 29.97 in 10.0 mi North 8.1 mph - N/A   Clear
5:14 AM 68.0 °F 64.4 °F 88% 29.98 in 10.0 mi NNE 10.4 mph - N/A   Clear
5:34 AM 68.0 °F 62.6 °F 83% 29.98 in 10.0 mi NNE 9.2 mph - N/A   Clear
5:54 AM 66.2 °F 62.6 °F 88% 29.99 in 10.0 mi NE 9.2 mph - N/A   Clear
6:14 AM 66.2 °F 62.6 °F 88% 30.00 in 10.0 mi NNE 9.2 mph - N/A   Clear
6:34 AM 66.2 °F 62.6 °F 88% 30.01 in 10.0 mi NNE 6.9 mph - N/A   Clear
6:54 AM 66.2 °F 60.8 °F 83% 30.01 in 10.0 mi NNE 8.1 mph - N/A   Clear
7:14 AM 66.2 °F 60.8 °F 83% 30.02 in 10.0 mi NNE 6.9 mph - N/A   Clear
7:34 AM 66.2 °F 60.8 °F 83% 30.03 in 10.0 mi NNE 9.2 mph - N/A   Clear
7:53 AM 66.2 °F 60.8 °F 83% 30.03 in 10.0 mi NNE 11.5 mph - N/A   Clear
8:14 AM 66.2 °F 60.8 °F 83% 30.04 in 10.0 mi NNE 9.2 mph - N/A   Clear
8:34 AM 66.2 °F 60.8 °F 83% 30.04 in 10.0 mi NNE 11.5 mph 16.1 mph N/A   Clear
8:53 AM 66.2 °F 60.8 °F 83% 30.05 in 10.0 mi NNE 12.7 mph - N/A   Clear
9:14 AM 66.2 °F 60.8 °F 83% 30.06 in 10.0 mi NNE 13.8 mph 21.9 mph N/A   Clear
9:34 AM 68.0 °F 62.6 °F 83% 30.07 in 10.0 mi NNE 12.7 mph 19.6 mph N/A   Clear
9:53 AM 69.8 °F 62.6 °F 78% 30.08 in 10.0 mi NE 10.4 mph 17.3 mph N/A   Clear
10:14 AM 69.8 °F 62.6 °F 78% 30.08 in 10.0 mi NNE 11.5 mph 16.1 mph N/A   Clear
10:34 AM 69.8 °F 62.6 °F 78% 30.09 in 10.0 mi NE 12.7 mph 21.9 mph N/A   Clear
10:53 AM 71.6 °F 62.6 °F 73% 30.09 in 10.0 mi NE 16.1 mph 19.6 mph N/A   Clear
11:14 AM 71.6 °F 62.6 °F 73% 30.11 in 10.0 mi NE 12.7 mph 19.6 mph N/A   Clear
11:34 AM 71.6 °F 62.6 °F 73% 30.12 in 10.0 mi NE 17.3 mph 21.9 mph N/A   Clear
11:54 AM 71.6 °F 62.6 °F 73% 30.12 in 10.0 mi NE 17.3 mph 21.9 mph N/A   Clear
12:14 PM 71.6 °F 62.6 °F 73% 30.13 in 10.0 mi NE 17.3 mph 21.9 mph N/A   Clear
12:34 PM 71.6 °F 62.6 °F 73% 30.12 in 10.0 mi NE 12.7 mph 20.7 mph N/A   Clear
12:54 PM 71.6 °F 60.8 °F 69% 30.13 in 10.0 mi NE 13.8 mph 18.4 mph N/A   Clear
1:14 PM 73.4 °F 60.8 °F 65% 30.13 in 10.0 mi NE 16.1 mph - N/A   Clear
1:34 PM 73.4 °F 60.8 °F 65% 30.13 in 10.0 mi NE 13.8 mph 19.6 mph N/A   Clear
1:54 PM 73.4 °F 60.8 °F 65% 30.13 in 10.0 mi NE 11.5 mph 16.1 mph N/A   Clear
2:14 PM 73.4 °F 57.2 °F 57% 30.13 in 10.0 mi NE 12.7 mph 19.6 mph N/A   Clear
2:34 PM 73.4 °F 55.4 °F 53% 30.13 in 10.0 mi NE 16.1 mph - N/A   Clear
2:54 PM 73.4 °F 55.4 °F 53% 30.12 in 10.0 mi NE 11.5 mph 19.6 mph N/A   Clear
3:14 PM 73.4 °F 55.4 °F 53% 30.12 in 10.0 mi NE 13.8 mph - N/A   Clear
3:33 PM 73.4 °F 55.4 °F 53% 30.12 in 10.0 mi NE 12.7 mph 18.4 mph N/A   Clear
3:54 PM 73.4 °F 55.4 °F 53% 30.12 in 10.0 mi ENE 11.5 mph 18.4 mph N/A   Clear
4:14 PM 73.4 °F 57.2 °F 57% 30.12 in 10.0 mi NE 10.4 mph 16.1 mph N/A   Clear
4:33 PM 73.4 °F 55.4 °F 53% 30.12 in 10.0 mi NE 8.1 mph - N/A   Clear
4:54 PM 73.4 °F 57.2 °F 57% 30.12 in 10.0 mi NE 9.2 mph - N/A   Clear
5:14 PM 73.4 °F 55.4 °F 53% 30.12 in 10.0 mi NNE 9.2 mph - N/A   Clear
5:34 PM 71.6 °F 55.4 °F 57% 30.13 in 10.0 mi NE 6.9 mph - N/A   Clear
5:54 PM 71.6 °F 55.4 °F 57% 30.13 in 10.0 mi NNE 8.1 mph - N/A   Clear
6:14 PM 71.6 °F 57.2 °F 60% 30.14 in 10.0 mi NNE 8.1 mph - N/A   Clear
6:34 PM 69.8 °F 57.2 °F 64% 30.14 in 10.0 mi North 5.8 mph - N/A   Clear
6:54 PM 69.8 °F 57.2 °F 64% 30.14 in 10.0 mi NNE 5.8 mph - N/A   Clear
7:14 PM 68.0 °F 57.2 °F 68% 30.14 in 10.0 mi NNE 3.5 mph - N/A   Clear
7:34 PM 66.2 °F 57.2 °F 73% 30.14 in 10.0 mi NNE 4.6 mph - N/A   Clear
7:54 PM 66.2 °F 57.2 °F 73% 30.15 in 10.0 mi NE 3.5 mph - N/A   Clear
8:14 PM 66.2 °F 57.2 °F 73% 30.14 in 10.0 mi NE 4.6 mph - N/A   Clear
8:34 PM 66.2 °F 59.0 °F 78% 30.14 in 10.0 mi NE 4.6 mph - N/A   Clear
8:54 PM 68.0 °F 59.0 °F 73% 30.14 in 10.0 mi ENE 4.6 mph - N/A   Clear
9:14 PM 66.2 °F 59.0 °F 78% 30.14 in 10.0 mi Calm Calm - N/A   Clear
9:34 PM 62.6 °F 57.2 °F 82% 30.14 in 10.0 mi Calm Calm - N/A   Clear
9:54 PM 62.6 °F 57.2 °F 82% 30.14 in 10.0 mi East 4.6 mph - N/A   Clear
10:14 PM 59.0 °F 55.4 °F 88% 30.14 in 10.0 mi Calm Calm - N/A   Clear
10:34 PM 59.0 °F 55.4 °F 88% 30.14 in 10.0 mi Calm Calm - N/A   Clear
10:54 PM 60.8 °F 55.4 °F 82% 30.14 in 10.0 mi East 4.6 mph - N/A   Clear
11:14 PM 64.4 °F 60.8 °F 88% 30.15 in 10.0 mi East 4.6 mph - N/A   Clear
11:34 PM 66.2 °F 60.8 °F 83% 30.15 in 10.0 mi East 11.5 mph - N/A   Clear
11:54 PM 66.2 °F 60.8 °F 83% 30.14 in 10.0 mi East 9.2 mph - N/A   Clear